Roswell International Air Center Airport
KROW : now visible

Airfield :











YOU CAN JOIN US ON...

 
LOGIN :

Register | Disclaimer

   EN    FR    IT 

 









Legend :    VFR   Marginal VFR   IFR   Intensive IFR   Very Intensive IFR
Visi :
Ceiling :
>= 8 km
>= 3000ft
5 to 8 km
1000 to 3000 ft
1500m to 5 km
500 to 1000 ft
800 to 1500m
200 to 500 ft
< 800m
< 200 ft
Symbols :   Thunderstorms  Fog  Heavy snow  Heavy precipitations  Wind > 20 kt






- Airport Elevation : 3671 ft
- IATA code : ROW


KROW - Roswell International Air Center

CURRENT METAR :
  • 270051Z 16013KT 10SM CLR 30/03 A2989 RMK AO2 SLP064 T03000028

EXPIRED METARs :
  • 262351Z 19013G21KT 10SM CLR 30/03 A2990 RMK AO2 SLP070 T03000028 10311 20256 56020
  • 262251Z 15013G20KT 10SM CLR 31/02 A2992 RMK AO2 SLP073 T03060022

TAF KROW
Valid from the 27 at 00:00 until the 28 at 00:00 UTC


262333Z 2700/2724 16012G18KT P6SM SCT100
FM270300 20008KT P6SM SCT120
FM271200 01007KT P6SM SCT150
FM271800 05007KT P6SM SCT150
KZAB FIR / North America



MET'MAP, your aeronautical weather chart ! - Copyright ORBIFLY December 2007 - Disclaimer

ORBIFLY MET'MAP TEAM :

Programming & Development : Alexandra Zaïnal
Concept & original design : Baudouin d'Aumeries
Assistance for programming : Marc-Olivier Méhu
Technical & hardware support : Manuel Goepfert

Contact : metmap@orbifly.com




SOURCES & CREDITS :

   NOAA       Earth
Advisory